sensor_id;sensor_type;location;lat;lon;timestamp;temperature;humidity
75161;DHT22;67232;50.096;8.716;2023-02-28T00:01:08;3.50;59.00
75161;DHT22;67232;50.096;8.716;2023-02-28T00:03:34;3.60;58.90
75161;DHT22;67232;50.096;8.716;2023-02-28T00:06:01;3.60;59.00
75161;DHT22;67232;50.096;8.716;2023-02-28T00:08:27;3.40;59.20
75161;DHT22;67232;50.096;8.716;2023-02-28T00:10:53;3.50;59.40
75161;DHT22;67232;50.096;8.716;2023-02-28T00:13:19;3.50;59.20
75161;DHT22;67232;50.096;8.716;2023-02-28T00:15:44;3.50;59.50
75161;DHT22;67232;50.096;8.716;2023-02-28T00:18:11;3.60;59.40
75161;DHT22;67232;50.096;8.716;2023-02-28T00:20:39;3.50;59.50
75161;DHT22;67232;50.096;8.716;2023-02-28T00:23:05;3.50;60.00
75161;DHT22;67232;50.096;8.716;2023-02-28T00:25:33;3.40;60.10
75161;DHT22;67232;50.096;8.716;2023-02-28T00:27:58;3.40;60.30
75161;DHT22;67232;50.096;8.716;2023-02-28T00:30:26;3.50;60.20
75161;DHT22;67232;50.096;8.716;2023-02-28T00:32:52;3.40;60.60
75161;DHT22;67232;50.096;8.716;2023-02-28T00:35:18;3.30;61.00
75161;DHT22;67232;50.096;8.716;2023-02-28T00:37:43;3.30;61.10
75161;DHT22;67232;50.096;8.716;2023-02-28T00:40:10;3.20;61.60
75161;DHT22;67232;50.096;8.716;2023-02-28T00:42:39;3.10;61.90
75161;DHT22;67232;50.096;8.716;2023-02-28T00:45:05;3.10;62.30
75161;DHT22;67232;50.096;8.716;2023-02-28T00:47:31;3.10;62.30
75161;DHT22;67232;50.096;8.716;2023-02-28T00:49:56;3.00;62.60
75161;DHT22;67232;50.096;8.716;2023-02-28T00:52:22;3.10;62.80
75161;DHT22;67232;50.096;8.716;2023-02-28T00:54:48;3.10;63.00
75161;DHT22;67232;50.096;8.716;2023-02-28T00:57:13;3.20;62.90
75161;DHT22;67232;50.096;8.716;2023-02-28T00:59:39;3.10;63.10
75161;DHT22;67232;50.096;8.716;2023-02-28T01:02:04;3.10;63.20
75161;DHT22;67232;50.096;8.716;2023-02-28T01:04:30;3.10;63.20
75161;DHT22;67232;50.096;8.716;2023-02-28T01:06:56;3.20;63.20
75161;DHT22;67232;50.096;8.716;2023-02-28T01:09:21;3.20;63.20
75161;DHT22;67232;50.096;8.716;2023-02-28T01:11:51;3.20;63.20
75161;DHT22;67232;50.096;8.716;2023-02-28T01:14:19;3.10;63.40
75161;DHT22;67232;50.096;8.716;2023-02-28T01:16:45;3.10;63.80
75161;DHT22;67232;50.096;8.716;2023-02-28T01:19:10;3.20;63.60
75161;DHT22;67232;50.096;8.716;2023-02-28T01:21:36;2.90;64.10
75161;DHT22;67232;50.096;8.716;2023-02-28T01:24:04;2.80;64.60
75161;DHT22;67232;50.096;8.716;2023-02-28T01:26:30;2.80;64.80
75161;DHT22;67232;50.096;8.716;2023-02-28T01:28:56;3.00;64.70
75161;DHT22;67232;50.096;8.716;2023-02-28T01:31:22;2.90;64.90
75161;DHT22;67232;50.096;8.716;2023-02-28T01:33:48;2.90;64.70
75161;DHT22;67232;50.096;8.716;2023-02-28T01:36:18;2.90;64.80
75161;DHT22;67232;50.096;8.716;2023-02-28T01:38:48;2.80;65.00
75161;DHT22;67232;50.096;8.716;2023-02-28T01:41:26;2.80;65.00
75161;DHT22;67232;50.096;8.716;2023-02-28T01:46:56;2.90;64.80
75161;DHT22;67232;50.096;8.716;2023-02-28T01:49:24;2.80;65.20
75161;DHT22;67232;50.096;8.716;2023-02-28T01:51:53;2.80;65.20
75161;DHT22;67232;50.096;8.716;2023-02-28T01:54:26;2.70;65.30
75161;DHT22;67232;50.096;8.716;2023-02-28T01:57:05;2.70;65.40
75161;DHT22;67232;50.096;8.716;2023-02-28T01:59:36;2.70;65.20
75161;DHT22;67232;50.096;8.716;2023-02-28T02:02:03;2.70;65.50
75161;DHT22;67232;50.096;8.716;2023-02-28T02:04:36;2.70;65.10
75161;DHT22;67232;50.096;8.716;2023-02-28T02:07:04;2.70;65.10
75161;DHT22;67232;50.096;8.716;2023-02-28T02:09:32;2.80;65.00
75161;DHT22;67232;50.096;8.716;2023-02-28T02:11:59;2.70;64.70
75161;DHT22;67232;50.096;8.716;2023-02-28T02:14:40;2.80;64.80
75161;DHT22;67232;50.096;8.716;2023-02-28T02:17:31;2.90;64.40
75161;DHT22;67232;50.096;8.716;2023-02-28T02:26:27;2.60;65.30
75161;DHT22;67232;50.096;8.716;2023-02-28T02:31:38;2.60;65.00
75161;DHT22;67232;50.096;8.716;2023-02-28T02:34:34;2.40;65.30
75161;DHT22;67232;50.096;8.716;2023-02-28T02:39:52;2.50;64.90
75161;DHT22;67232;50.096;8.716;2023-02-28T02:42:25;2.50;64.70
75161;DHT22;67232;50.096;8.716;2023-02-28T02:45:00;2.40;65.00
75161;DHT22;67232;50.096;8.716;2023-02-28T02:47:30;2.40;65.00
75161;DHT22;67232;50.096;8.716;2023-02-28T02:49:59;2.30;64.70
75161;DHT22;67232;50.096;8.716;2023-02-28T02:52:43;2.40;64.50
75161;DHT22;67232;50.096;8.716;2023-02-28T02:55:11;2.40;64.60
75161;DHT22;67232;50.096;8.716;2023-02-28T02:57:47;2.40;64.50
75161;DHT22;67232;50.096;8.716;2023-02-28T03:00:16;2.30;64.70
75161;DHT22;67232;50.096;8.716;2023-02-28T03:02:44;2.20;64.70
75161;DHT22;67232;50.096;8.716;2023-02-28T03:05:26;2.20;64.70
75161;DHT22;67232;50.096;8.716;2023-02-28T03:07:52;2.20;65.00
75161;DHT22;67232;50.096;8.716;2023-02-28T03:13:04;2.30;64.90
75161;DHT22;67232;50.096;8.716;2023-02-28T03:18:45;2.20;64.50
75161;DHT22;67232;50.096;8.716;2023-02-28T03:24:03;2.20;64.70
75161;DHT22;67232;50.096;8.716;2023-02-28T03:26:31;2.20;64.70
75161;DHT22;67232;50.096;8.716;2023-02-28T03:29:13;2.20;64.70
75161;DHT22;67232;50.096;8.716;2023-02-28T03:32:00;2.30;64.40
75161;DHT22;67232;50.096;8.716;2023-02-28T03:34:33;2.30;64.20
75161;DHT22;67232;50.096;8.716;2023-02-28T03:37:14;2.30;64.50
75161;DHT22;67232;50.096;8.716;2023-02-28T03:39:44;2.40;64.00
75161;DHT22;67232;50.096;8.716;2023-02-28T03:42:35;2.30;64.40
75161;DHT22;67232;50.096;8.716;2023-02-28T03:45:10;2.20;64.30
75161;DHT22;67232;50.096;8.716;2023-02-28T03:47:45;2.20;64.50
75161;DHT22;67232;50.096;8.716;2023-02-28T03:50:29;2.10;64.60
75161;DHT22;67232;50.096;8.716;2023-02-28T03:53:08;2.00;64.60
75161;DHT22;67232;50.096;8.716;2023-02-28T03:55:47;2.10;64.50
75161;DHT22;67232;50.096;8.716;2023-02-28T03:58:19;2.00;64.50
75161;DHT22;67232;50.096;8.716;2023-02-28T04:00:55;2.00;64.60
75161;DHT22;67232;50.096;8.716;2023-02-28T04:03:24;1.90;64.80
75161;DHT22;67232;50.096;8.716;2023-02-28T04:05:54;1.80;65.00
75161;DHT22;67232;50.096;8.716;2023-02-28T04:08:23;1.80;64.90
75161;DHT22;67232;50.096;8.716;2023-02-28T04:13:46;2.10;64.40
75161;DHT22;67232;50.096;8.716;2023-02-28T04:16:12;2.20;63.90
75161;DHT22;67232;50.096;8.716;2023-02-28T04:18:38;2.10;64.20
75161;DHT22;67232;50.096;8.716;2023-02-28T04:21:13;2.00;64.20
75161;DHT22;67232;50.096;8.716;2023-02-28T04:23:41;1.90;64.30
75161;DHT22;67232;50.096;8.716;2023-02-28T04:26:13;2.10;64.10
75161;DHT22;67232;50.096;8.716;2023-02-28T04:28:39;2.10;64.40
75161;DHT22;67232;50.096;8.716;2023-02-28T04:31:05;2.00;64.30
75161;DHT22;67232;50.096;8.716;2023-02-28T04:33:32;2.20;64.00
75161;DHT22;67232;50.096;8.716;2023-02-28T04:36:03;2.20;63.70
75161;DHT22;67232;50.096;8.716;2023-02-28T04:38:32;2.10;63.80
75161;DHT22;67232;50.096;8.716;2023-02-28T04:40:59;1.90;64.20
75161;DHT22;67232;50.096;8.716;2023-02-28T04:43:31;1.90;64.30
75161;DHT22;67232;50.096;8.716;2023-02-28T04:45:58;1.90;64.20
75161;DHT22;67232;50.096;8.716;2023-02-28T04:48:25;1.90;64.40
75161;DHT22;67232;50.096;8.716;2023-02-28T04:50:53;1.90;64.20
75161;DHT22;67232;50.096;8.716;2023-02-28T04:53:19;2.00;63.80
75161;DHT22;67232;50.096;8.716;2023-02-28T04:55:51;2.10;63.90
75161;DHT22;67232;50.096;8.716;2023-02-28T04:58:21;2.20;63.70
75161;DHT22;67232;50.096;8.716;2023-02-28T05:00:51;2.00;64.10
75161;DHT22;67232;50.096;8.716;2023-02-28T05:03:19;2.10;64.00
75161;DHT22;67232;50.096;8.716;2023-02-28T05:05:48;2.10;63.70
75161;DHT22;67232;50.096;8.716;2023-02-28T05:08:14;2.00;63.90
75161;DHT22;67232;50.096;8.716;2023-02-28T05:10:39;1.90;63.70
75161;DHT22;67232;50.096;8.716;2023-02-28T05:13:05;1.90;63.40
75161;DHT22;67232;50.096;8.716;2023-02-28T05:15:33;1.90;63.80
75161;DHT22;67232;50.096;8.716;2023-02-28T05:18:01;2.00;63.60
75161;DHT22;67232;50.096;8.716;2023-02-28T05:20:27;2.00;63.80
75161;DHT22;67232;50.096;8.716;2023-02-28T05:22:52;1.90;63.80
75161;DHT22;67232;50.096;8.716;2023-02-28T05:25:21;1.80;63.70
75161;DHT22;67232;50.096;8.716;2023-02-28T05:27:47;1.90;63.70
75161;DHT22;67232;50.096;8.716;2023-02-28T05:30:15;2.00;63.50
75161;DHT22;67232;50.096;8.716;2023-02-28T05:32:42;2.00;63.60
75161;DHT22;67232;50.096;8.716;2023-02-28T05:35:11;2.10;63.70
75161;DHT22;67232;50.096;8.716;2023-02-28T05:37:38;2.10;63.40
75161;DHT22;67232;50.096;8.716;2023-02-28T05:40:05;2.10;63.40
75161;DHT22;67232;50.096;8.716;2023-02-28T05:42:37;2.10;63.30
75161;DHT22;67232;50.096;8.716;2023-02-28T05:45:06;2.00;63.50
75161;DHT22;67232;50.096;8.716;2023-02-28T05:47:32;2.10;63.40
75161;DHT22;67232;50.096;8.716;2023-02-28T05:49:58;2.00;63.50
75161;DHT22;67232;50.096;8.716;2023-02-28T05:52:25;2.10;63.60
75161;DHT22;67232;50.096;8.716;2023-02-28T05:54:53;2.00;63.60
75161;DHT22;67232;50.096;8.716;2023-02-28T05:57:22;1.90;63.50
75161;DHT22;67232;50.096;8.716;2023-02-28T05:59:53;1.90;63.50
75161;DHT22;67232;50.096;8.716;2023-02-28T06:02:18;1.90;63.60
75161;DHT22;67232;50.096;8.716;2023-02-28T06:04:45;1.90;63.40
75161;DHT22;67232;50.096;8.716;2023-02-28T06:07:11;2.00;63.40
75161;DHT22;67232;50.096;8.716;2023-02-28T06:09:37;2.10;63.40
75161;DHT22;67232;50.096;8.716;2023-02-28T06:12:04;1.90;63.30
75161;DHT22;67232;50.096;8.716;2023-02-28T06:14:34;1.90;63.40
75161;DHT22;67232;50.096;8.716;2023-02-28T06:17:00;1.90;63.50
75161;DHT22;67232;50.096;8.716;2023-02-28T06:19:26;1.80;63.50
75161;DHT22;67232;50.096;8.716;2023-02-28T06:21:56;1.80;63.50
75161;DHT22;67232;50.096;8.716;2023-02-28T06:24:23;1.90;63.20
75161;DHT22;67232;50.096;8.716;2023-02-28T06:26:50;2.00;63.10
75161;DHT22;67232;50.096;8.716;2023-02-28T06:29:18;1.90;62.80
75161;DHT22;67232;50.096;8.716;2023-02-28T06:31:45;1.80;63.10
75161;DHT22;67232;50.096;8.716;2023-02-28T06:34:14;1.90;62.90
75161;DHT22;67232;50.096;8.716;2023-02-28T06:36:41;1.90;62.60
75161;DHT22;67232;50.096;8.716;2023-02-28T06:39:09;1.90;62.60
75161;DHT22;67232;50.096;8.716;2023-02-28T06:41:38;2.00;62.40
75161;DHT22;67232;50.096;8.716;2023-02-28T06:44:08;2.00;62.20
75161;DHT22;67232;50.096;8.716;2023-02-28T06:46:36;2.20;61.70
75161;DHT22;67232;50.096;8.716;2023-02-28T06:49:04;2.10;61.90
75161;DHT22;67232;50.096;8.716;2023-02-28T06:51:30;2.10;61.50
75161;DHT22;67232;50.096;8.716;2023-02-28T06:53:55;2.20;61.50
75161;DHT22;67232;50.096;8.716;2023-02-28T06:56:21;2.10;61.20
75161;DHT22;67232;50.096;8.716;2023-02-28T06:58:52;2.20;61.10
75161;DHT22;67232;50.096;8.716;2023-02-28T07:01:23;2.40;60.90
75161;DHT22;67232;50.096;8.716;2023-02-28T07:03:50;2.50;60.50
75161;DHT22;67232;50.096;8.716;2023-02-28T07:06:20;2.60;60.20
75161;DHT22;67232;50.096;8.716;2023-02-28T07:08:50;2.80;59.80
75161;DHT22;67232;50.096;8.716;2023-02-28T07:11:16;2.80;59.90
75161;DHT22;67232;50.096;8.716;2023-02-28T07:13:42;2.80;59.70
75161;DHT22;67232;50.096;8.716;2023-02-28T07:16:11;3.00;59.70
75161;DHT22;67232;50.096;8.716;2023-02-28T07:18:39;3.10;59.40
75161;DHT22;67232;50.096;8.716;2023-02-28T07:21:06;3.10;59.30
75161;DHT22;67232;50.096;8.716;2023-02-28T07:23:35;3.10;59.50
75161;DHT22;67232;50.096;8.716;2023-02-28T07:26:06;3.20;59.50
75161;DHT22;67232;50.096;8.716;2023-02-28T07:28:36;3.30;59.10
75161;DHT22;67232;50.096;8.716;2023-02-28T07:31:07;3.40;59.00
75161;DHT22;67232;50.096;8.716;2023-02-28T07:33:33;3.50;58.60
75161;DHT22;67232;50.096;8.716;2023-02-28T07:38:28;3.50;58.60
75161;DHT22;67232;50.096;8.716;2023-02-28T07:40:53;3.50;58.50
75161;DHT22;67232;50.096;8.716;2023-02-28T07:43:19;3.70;58.00
75161;DHT22;67232;50.096;8.716;2023-02-28T07:45:49;3.80;57.80
75161;DHT22;67232;50.096;8.716;2023-02-28T07:48:15;3.90;57.60
75161;DHT22;67232;50.096;8.716;2023-02-28T07:50:40;3.90;57.40
75161;DHT22;67232;50.096;8.716;2023-02-28T07:53:06;3.80;57.40
75161;DHT22;67232;50.096;8.716;2023-02-28T07:55:31;3.80;57.50
75161;DHT22;67232;50.096;8.716;2023-02-28T07:57:58;4.00;57.30
75161;DHT22;67232;50.096;8.716;2023-02-28T08:00:23;4.00;57.50
75161;DHT22;67232;50.096;8.716;2023-02-28T08:02:51;4.10;57.30
75161;DHT22;67232;50.096;8.716;2023-02-28T08:05:17;4.30;57.30
75161;DHT22;67232;50.096;8.716;2023-02-28T08:07:42;4.30;56.70
75161;DHT22;67232;50.096;8.716;2023-02-28T08:10:08;4.40;56.70
75161;DHT22;67232;50.096;8.716;2023-02-28T08:12:35;4.60;56.70
75161;DHT22;67232;50.096;8.716;2023-02-28T08:15:00;4.60;56.10
75161;DHT22;67232;50.096;8.716;2023-02-28T08:17:28;4.70;55.50
75161;DHT22;67232;50.096;8.716;2023-02-28T08:19:54;4.90;55.50
75161;DHT22;67232;50.096;8.716;2023-02-28T08:22:22;5.00;54.90
75161;DHT22;67232;50.096;8.716;2023-02-28T08:24:48;5.40;54.50
75161;DHT22;67232;50.096;8.716;2023-02-28T08:27:16;5.90;53.60
75161;DHT22;67232;50.096;8.716;2023-02-28T08:29:44;6.10;52.80
75161;DHT22;67232;50.096;8.716;2023-02-28T08:32:10;6.30;52.40
75161;DHT22;67232;50.096;8.716;2023-02-28T08:34:36;6.10;52.60
75161;DHT22;67232;50.096;8.716;2023-02-28T08:37:03;6.50;52.40
75161;DHT22;67232;50.096;8.716;2023-02-28T08:39:29;6.70;51.90
75161;DHT22;67232;50.096;8.716;2023-02-28T08:41:59;7.00;51.20
75161;DHT22;67232;50.096;8.716;2023-02-28T08:44:25;7.20;50.70
75161;DHT22;67232;50.096;8.716;2023-02-28T08:46:50;7.20;50.10
75161;DHT22;67232;50.096;8.716;2023-02-28T08:49:18;7.50;49.80
75161;DHT22;67232;50.096;8.716;2023-02-28T08:51:44;7.80;49.10
75161;DHT22;67232;50.096;8.716;2023-02-28T08:54:19;8.50;48.80
75161;DHT22;67232;50.096;8.716;2023-02-28T08:56:48;8.70;47.90
75161;DHT22;67232;50.096;8.716;2023-02-28T08:59:15;8.90;47.40
75161;DHT22;67232;50.096;8.716;2023-02-28T09:01:44;9.20;46.50
75161;DHT22;67232;50.096;8.716;2023-02-28T09:04:10;9.20;46.30
75161;DHT22;67232;50.096;8.716;2023-02-28T09:06:39;9.70;45.60
75161;DHT22;67232;50.096;8.716;2023-02-28T09:09:05;10.10;45.30
75161;DHT22;67232;50.096;8.716;2023-02-28T09:11:34;10.80;44.70
75161;DHT22;67232;50.096;8.716;2023-02-28T09:14:01;11.20;43.70
75161;DHT22;67232;50.096;8.716;2023-02-28T09:16:31;11.50;43.30
75161;DHT22;67232;50.096;8.716;2023-02-28T09:18:57;12.30;42.80
75161;DHT22;67232;50.096;8.716;2023-02-28T09:21:22;12.50;41.70
75161;DHT22;67232;50.096;8.716;2023-02-28T09:23:51;12.60;41.60
75161;DHT22;67232;50.096;8.716;2023-02-28T09:26:21;12.60;40.70
75161;DHT22;67232;50.096;8.716;2023-02-28T09:28:47;12.60;40.60
75161;DHT22;67232;50.096;8.716;2023-02-28T09:31:22;12.80;40.30
75161;DHT22;67232;50.096;8.716;2023-02-28T09:33:52;13.50;39.60
75161;DHT22;67232;50.096;8.716;2023-02-28T09:36:21;13.60;39.40
75161;DHT22;67232;50.096;8.716;2023-02-28T09:38:47;12.50;40.80
75161;DHT22;67232;50.096;8.716;2023-02-28T09:41:28;12.40;41.30
75161;DHT22;67232;50.096;8.716;2023-02-28T09:44:06;13.00;39.60
75161;DHT22;67232;50.096;8.716;2023-02-28T09:46:37;12.40;40.80
75161;DHT22;67232;50.096;8.716;2023-02-28T09:49:16;11.70;41.30
75161;DHT22;67232;50.096;8.716;2023-02-28T09:54:16;10.50;42.90
75161;DHT22;67232;50.096;8.716;2023-02-28T10:05:17;9.20;44.90
75161;DHT22;67232;50.096;8.716;2023-02-28T10:08:14;12.10;43.30
75161;DHT22;67232;50.096;8.716;2023-02-28T10:10:55;13.30;40.10
75161;DHT22;67232;50.096;8.716;2023-02-28T10:13:35;12.80;39.20
75161;DHT22;67232;50.096;8.716;2023-02-28T10:16:10;12.50;41.40
75161;DHT22;67232;50.096;8.716;2023-02-28T10:18:47;12.50;41.40
75161;DHT22;67232;50.096;8.716;2023-02-28T10:22:14;13.20;39.30
75161;DHT22;67232;50.096;8.716;2023-02-28T10:24:39;12.60;39.60
75161;DHT22;67232;50.096;8.716;2023-02-28T10:27:17;10.60;42.30
75161;DHT22;67232;50.096;8.716;2023-02-28T10:29:49;11.00;41.90
75161;DHT22;67232;50.096;8.716;2023-02-28T10:32:19;9.80;42.90
75161;DHT22;67232;50.096;8.716;2023-02-28T10:34:52;9.50;43.70
75161;DHT22;67232;50.096;8.716;2023-02-28T10:37:22;9.30;44.00
75161;DHT22;67232;50.096;8.716;2023-02-28T10:39:47;9.20;44.30
75161;DHT22;67232;50.096;8.716;2023-02-28T10:42:28;8.40;44.60
75161;DHT22;67232;50.096;8.716;2023-02-28T10:45:16;8.70;44.70
75161;DHT22;67232;50.096;8.716;2023-02-28T10:53:34;9.20;44.30
75161;DHT22;67232;50.096;8.716;2023-02-28T10:56:03;9.90;44.40
75161;DHT22;67232;50.096;8.716;2023-02-28T10:58:56;15.40;36.80
75161;DHT22;67232;50.096;8.716;2023-02-28T11:01:23;18.80;32.40
75161;DHT22;67232;50.096;8.716;2023-02-28T11:03:50;18.00;32.50
75161;DHT22;67232;50.096;8.716;2023-02-28T11:06:22;15.40;35.00
75161;DHT22;67232;50.096;8.716;2023-02-28T11:08:49;14.70;36.10
75161;DHT22;67232;50.096;8.716;2023-02-28T11:11:17;15.10;35.80
75161;DHT22;67232;50.096;8.716;2023-02-28T11:13:47;13.60;36.90
75161;DHT22;67232;50.096;8.716;2023-02-28T11:16:18;16.30;35.20
75161;DHT22;67232;50.096;8.716;2023-02-28T11:18:56;21.70;30.20
75161;DHT22;67232;50.096;8.716;2023-02-28T11:21:24;23.80;28.50
75161;DHT22;67232;50.096;8.716;2023-02-28T11:23:56;24.90;27.40
75161;DHT22;67232;50.096;8.716;2023-02-28T11:26:45;26.00;27.20
75161;DHT22;67232;50.096;8.716;2023-02-28T11:29:26;26.30;26.70
75161;DHT22;67232;50.096;8.716;2023-02-28T11:34:35;25.40;27.10
75161;DHT22;67232;50.096;8.716;2023-02-28T11:37:01;25.20;26.70
75161;DHT22;67232;50.096;8.716;2023-02-28T11:39:33;26.00;26.40
75161;DHT22;67232;50.096;8.716;2023-02-28T11:42:11;25.40;26.50
75161;DHT22;67232;50.096;8.716;2023-02-28T11:50:21;26.40;25.90
75161;DHT22;67232;50.096;8.716;2023-02-28T11:52:56;27.00;25.50
75161;DHT22;67232;50.096;8.716;2023-02-28T11:55:27;26.80;25.40
75161;DHT22;67232;50.096;8.716;2023-02-28T12:03:31;26.40;25.30
75161;DHT22;67232;50.096;8.716;2023-02-28T12:06:15;26.50;24.90
75161;DHT22;67232;50.096;8.716;2023-02-28T12:17:05;26.80;25.00
75161;DHT22;67232;50.096;8.716;2023-02-28T12:22:35;25.20;26.20
75161;DHT22;67232;50.096;8.716;2023-02-28T12:27:44;25.80;25.50
75161;DHT22;67232;50.096;8.716;2023-02-28T12:30:32;25.80;25.70
75161;DHT22;67232;50.096;8.716;2023-02-28T12:33:12;24.60;26.00
75161;DHT22;67232;50.096;8.716;2023-02-28T12:35:51;24.40;25.70
75161;DHT22;67232;50.096;8.716;2023-02-28T12:38:36;24.70;25.70
75161;DHT22;67232;50.096;8.716;2023-02-28T12:41:09;23.50;26.80
75161;DHT22;67232;50.096;8.716;2023-02-28T12:43:54;24.00;26.10
75161;DHT22;67232;50.096;8.716;2023-02-28T12:46:29;24.40;26.00
75161;DHT22;67232;50.096;8.716;2023-02-28T12:48:57;23.30;26.90
75161;DHT22;67232;50.096;8.716;2023-02-28T12:51:24;23.00;26.90
75161;DHT22;67232;50.096;8.716;2023-02-28T12:54:25;20.20;28.00
75161;DHT22;67232;50.096;8.716;2023-02-28T13:10:49;11.50;38.20
75161;DHT22;67232;50.096;8.716;2023-02-28T13:13:24;11.20;38.80
75161;DHT22;67232;50.096;8.716;2023-02-28T13:16:04;10.80;39.00
75161;DHT22;67232;50.096;8.716;2023-02-28T13:18:39;10.70;39.90
75161;DHT22;67232;50.096;8.716;2023-02-28T13:21:09;10.20;40.30
75161;DHT22;67232;50.096;8.716;2023-02-28T13:26:21;9.70;40.70
75161;DHT22;67232;50.096;8.716;2023-02-28T13:34:49;9.50;41.90
75161;DHT22;67232;50.096;8.716;2023-02-28T13:37:38;9.50;42.20
75161;DHT22;67232;50.096;8.716;2023-02-28T13:42:47;9.60;42.70
75161;DHT22;67232;50.096;8.716;2023-02-28T13:45:23;9.30;42.70
75161;DHT22;67232;50.096;8.716;2023-02-28T13:47:54;9.30;42.50
75161;DHT22;67232;50.096;8.716;2023-02-28T13:58:20;9.10;43.10
75161;DHT22;67232;50.096;8.716;2023-02-28T14:06:31;8.70;43.70
75161;DHT22;67232;50.096;8.716;2023-02-28T14:09:05;8.80;43.80
75161;DHT22;67232;50.096;8.716;2023-02-28T14:11:37;8.70;43.90
75161;DHT22;67232;50.096;8.716;2023-02-28T14:14:06;8.70;44.10
75161;DHT22;67232;50.096;8.716;2023-02-28T14:21:38;8.80;43.70
75161;DHT22;67232;50.096;8.716;2023-02-28T14:35:29;8.90;44.10
75161;DHT22;67232;50.096;8.716;2023-02-28T14:38:05;8.80;44.50
75161;DHT22;67232;50.096;8.716;2023-02-28T14:40:33;8.80;44.50
75161;DHT22;67232;50.096;8.716;2023-02-28T14:43:04;8.70;44.20
75161;DHT22;67232;50.096;8.716;2023-02-28T14:45:35;8.70;44.60
75161;DHT22;67232;50.096;8.716;2023-02-28T14:48:04;8.50;44.80
75161;DHT22;67232;50.096;8.716;2023-02-28T14:50:37;8.30;45.20
75161;DHT22;67232;50.096;8.716;2023-02-28T14:53:09;8.30;45.70
75161;DHT22;67232;50.096;8.716;2023-02-28T14:55:45;8.40;45.50
75161;DHT22;67232;50.096;8.716;2023-02-28T14:58:29;8.40;45.40
75161;DHT22;67232;50.096;8.716;2023-02-28T15:00:57;8.30;45.60
75161;DHT22;67232;50.096;8.716;2023-02-28T15:03:32;8.40;45.40
75161;DHT22;67232;50.096;8.716;2023-02-28T15:06:05;8.30;46.00
75161;DHT22;67232;50.096;8.716;2023-02-28T15:08:31;8.40;45.70
75161;DHT22;67232;50.096;8.716;2023-02-28T15:11:08;8.50;45.50
75161;DHT22;67232;50.096;8.716;2023-02-28T15:13:43;8.50;45.70
75161;DHT22;67232;50.096;8.716;2023-02-28T15:19:34;7.90;46.50
75161;DHT22;67232;50.096;8.716;2023-02-28T15:21:44;7.90;46.10
75161;DHT22;67232;50.096;8.716;2023-02-28T15:26:51;7.80;46.50
75161;DHT22;67232;50.096;8.716;2023-02-28T15:29:21;8.00;46.80
75161;DHT22;67232;50.096;8.716;2023-02-28T15:34:26;7.90;46.40
75161;DHT22;67232;50.096;8.716;2023-02-28T15:36:57;7.90;46.80
75161;DHT22;67232;50.096;8.716;2023-02-28T15:39:28;8.10;46.60
75161;DHT22;67232;50.096;8.716;2023-02-28T15:42:16;8.00;46.50
75161;DHT22;67232;50.096;8.716;2023-02-28T15:44:45;7.60;46.80
75161;DHT22;67232;50.096;8.716;2023-02-28T15:47:20;7.60;47.10
75161;DHT22;67232;50.096;8.716;2023-02-28T15:52:28;7.80;47.10
75161;DHT22;67232;50.096;8.716;2023-02-28T15:54:59;7.60;46.90
75161;DHT22;67232;50.096;8.716;2023-02-28T15:57:35;7.50;47.40
75161;DHT22;67232;50.096;8.716;2023-02-28T16:00:03;7.80;47.40
75161;DHT22;67232;50.096;8.716;2023-02-28T16:02:34;7.60;47.50
75161;DHT22;67232;50.096;8.716;2023-02-28T16:07:43;7.40;48.10
75161;DHT22;67232;50.096;8.716;2023-02-28T16:10:11;7.40;48.10
75161;DHT22;67232;50.096;8.716;2023-02-28T16:12:42;7.40;48.00
75161;DHT22;67232;50.096;8.716;2023-02-28T16:17:42;7.40;48.30
75161;DHT22;67232;50.096;8.716;2023-02-28T16:20:21;7.40;48.10
75161;DHT22;67232;50.096;8.716;2023-02-28T16:22:47;7.50;48.40
75161;DHT22;67232;50.096;8.716;2023-02-28T16:25:15;7.30;48.50
75161;DHT22;67232;50.096;8.716;2023-02-28T16:27:49;7.30;48.50
75161;DHT22;67232;50.096;8.716;2023-02-28T16:30:21;7.40;48.40
75161;DHT22;67232;50.096;8.716;2023-02-28T16:32:47;7.30;48.80
75161;DHT22;67232;50.096;8.716;2023-02-28T16:35:16;7.20;49.00
75161;DHT22;67232;50.096;8.716;2023-02-28T16:37:43;7.20;48.90
75161;DHT22;67232;50.096;8.716;2023-02-28T16:40:23;7.20;49.30
75161;DHT22;67232;50.096;8.716;2023-02-28T16:42:54;7.20;49.10
75161;DHT22;67232;50.096;8.716;2023-02-28T16:45:23;7.10;49.20
75161;DHT22;67232;50.096;8.716;2023-02-28T16:47:55;7.00;49.50
75161;DHT22;67232;50.096;8.716;2023-02-28T16:50:23;7.00;49.10
75161;DHT22;67232;50.096;8.716;2023-02-28T16:52:50;7.10;50.10
75161;DHT22;67232;50.096;8.716;2023-02-28T16:55:20;7.10;49.60
75161;DHT22;67232;50.096;8.716;2023-02-28T16:58:00;7.10;49.50
75161;DHT22;67232;50.096;8.716;2023-02-28T17:00:29;7.10;49.30
75161;DHT22;67232;50.096;8.716;2023-02-28T17:02:56;6.90;49.40
75161;DHT22;67232;50.096;8.716;2023-02-28T17:05:24;7.00;49.60
75161;DHT22;67232;50.096;8.716;2023-02-28T17:07:53;6.70;50.10
75161;DHT22;67232;50.096;8.716;2023-02-28T17:10:26;6.70;49.60
75161;DHT22;67232;50.096;8.716;2023-02-28T17:12:54;6.60;49.90
75161;DHT22;67232;50.096;8.716;2023-02-28T17:15:20;6.70;50.10
75161;DHT22;67232;50.096;8.716;2023-02-28T17:17:50;6.70;49.80
75161;DHT22;67232;50.096;8.716;2023-02-28T17:20:27;6.60;50.00
75161;DHT22;67232;50.096;8.716;2023-02-28T17:22:53;6.80;50.10
75161;DHT22;67232;50.096;8.716;2023-02-28T17:25:23;6.70;49.90
75161;DHT22;67232;50.096;8.716;2023-02-28T17:27:49;6.60;50.10
75161;DHT22;67232;50.096;8.716;2023-02-28T17:30:23;6.60;50.10
75161;DHT22;67232;50.096;8.716;2023-02-28T17:32:59;6.60;50.30
75161;DHT22;67232;50.096;8.716;2023-02-28T17:35:25;6.40;50.50
75161;DHT22;67232;50.096;8.716;2023-02-28T17:37:52;6.30;50.50
75161;DHT22;67232;50.096;8.716;2023-02-28T17:40:20;6.20;50.70
75161;DHT22;67232;50.096;8.716;2023-02-28T17:42:52;6.10;51.10
75161;DHT22;67232;50.096;8.716;2023-02-28T17:45:24;6.00;51.30
75161;DHT22;67232;50.096;8.716;2023-02-28T17:47:57;6.10;51.60
75161;DHT22;67232;50.096;8.716;2023-02-28T17:50:31;6.20;51.10
75161;DHT22;67232;50.096;8.716;2023-02-28T17:53:08;6.10;51.60
75161;DHT22;67232;50.096;8.716;2023-02-28T17:55:42;6.00;51.50
75161;DHT22;67232;50.096;8.716;2023-02-28T17:58:10;5.90;51.60
75161;DHT22;67232;50.096;8.716;2023-02-28T18:00:37;5.90;51.60
75161;DHT22;67232;50.096;8.716;2023-02-28T18:03:05;6.10;51.10
75161;DHT22;67232;50.096;8.716;2023-02-28T18:05:35;6.10;51.00
75161;DHT22;67232;50.096;8.716;2023-02-28T18:08:07;6.00;51.20
75161;DHT22;67232;50.096;8.716;2023-02-28T18:10:36;6.00;51.40
75161;DHT22;67232;50.096;8.716;2023-02-28T18:13:14;6.00;51.30
75161;DHT22;67232;50.096;8.716;2023-02-28T18:15:39;5.90;51.50
75161;DHT22;67232;50.096;8.716;2023-02-28T18:18:24;5.90;51.50
75161;DHT22;67232;50.096;8.716;2023-02-28T18:20:54;5.90;51.50
75161;DHT22;67232;50.096;8.716;2023-02-28T18:23:19;5.90;51.40
75161;DHT22;67232;50.096;8.716;2023-02-28T18:25:48;5.90;51.40
75161;DHT22;67232;50.096;8.716;2023-02-28T18:28:15;5.90;51.50